createdAt,value
2022-11-13T00:03:39.466Z,4.90
2022-11-13T00:08:59.865Z,4.80
2022-11-13T00:14:22.839Z,4.80
2022-11-13T00:19:43.358Z,4.93
2022-11-13T00:25:04.188Z,4.96
2022-11-13T00:30:24.593Z,4.98
2022-11-13T00:35:45.407Z,4.99
2022-11-13T00:41:06.191Z,4.94
2022-11-13T00:46:26.822Z,4.94
2022-11-13T00:51:49.110Z,4.89
2022-11-13T00:57:09.688Z,4.93
2022-11-13T01:02:30.055Z,4.89
2022-11-13T01:07:50.543Z,4.76
2022-11-13T01:13:11.364Z,4.67
2022-11-13T01:18:31.881Z,4.59
2022-11-13T01:23:52.495Z,4.51
2022-11-13T01:29:13.624Z,4.42
2022-11-13T01:34:34.375Z,4.35
2022-11-13T01:39:54.754Z,4.28
2022-11-13T01:45:53.263Z,4.21
2022-11-13T01:51:24.431Z,4.20
2022-11-13T01:56:45.177Z,4.15
2022-11-13T02:02:05.720Z,4.11
2022-11-13T02:07:26.448Z,4.12
2022-11-13T02:12:51.546Z,4.11
2022-11-13T02:18:13.868Z,4.05
2022-11-13T02:24:12.631Z,4.02
2022-11-13T02:29:33.005Z,3.97
2022-11-13T02:35:07.524Z,3.98
2022-11-13T02:40:28.350Z,4.03
2022-11-13T02:45:49.159Z,4.05
2022-11-13T02:51:09.988Z,4.03
2022-11-13T02:56:30.908Z,4.03
2022-11-13T03:01:51.561Z,4.03
2022-11-13T03:07:13.473Z,3.95
2022-11-13T03:12:34.398Z,3.84
2022-11-13T03:17:54.818Z,3.80
2022-11-13T03:23:15.324Z,3.74
2022-11-13T03:28:36.175Z,3.68
2022-11-13T03:33:56.676Z,3.65
2022-11-13T03:39:17.280Z,3.63
2022-11-13T03:44:38.057Z,3.65
2022-11-13T03:49:58.509Z,3.65
2022-11-13T03:55:19.233Z,3.67
2022-11-13T04:00:41.483Z,3.68
2022-11-13T04:06:02.201Z,3.80
2022-11-13T04:11:22.929Z,3.85
2022-11-13T04:16:43.336Z,3.94
2022-11-13T04:22:03.844Z,4.02
2022-11-13T04:27:24.076Z,3.99
2022-11-13T04:32:44.708Z,4.02
2022-11-13T04:38:05.182Z,4.05
2022-11-13T04:43:25.522Z,4.09
2022-11-13T04:48:46.108Z,4.12
2022-11-13T04:54:06.626Z,4.14
2022-11-13T04:59:27.543Z,4.19
2022-11-13T05:04:48.268Z,4.24
2022-11-13T05:10:09.801Z,4.28
2022-11-13T05:15:30.421Z,4.35
2022-11-13T05:20:51.138Z,4.38
2022-11-13T05:26:13.516Z,4.40
2022-11-13T05:31:34.216Z,4.34
2022-11-13T05:36:54.936Z,4.30
2022-11-13T05:42:15.676Z,4.29
2022-11-13T05:47:36.371Z,4.28
2022-11-13T05:52:56.784Z,4.30
2022-11-13T05:58:17.300Z,4.33
2022-11-13T06:03:39.012Z,4.37
2022-11-13T06:09:02.426Z,4.44
2022-11-13T06:14:23.351Z,4.51
2022-11-13T06:19:45.015Z,4.60
2022-11-13T06:25:05.954Z,4.68
2022-11-13T06:30:26.525Z,4.76
2022-11-13T06:35:47.349Z,4.80
2022-11-13T06:41:09.918Z,4.79
2022-11-13T06:46:31.563Z,4.79
2022-11-13T06:52:01.908Z,4.88
2022-11-13T06:57:22.821Z,4.95
2022-11-13T07:02:43.311Z,5.05
2022-11-13T07:08:03.853Z,5.18
2022-11-13T07:13:26.206Z,5.31
2022-11-13T07:18:51.909Z,5.47
2022-11-13T07:24:16.755Z,5.62
2022-11-13T07:29:39.325Z,5.80
2022-11-13T07:34:59.836Z,6.01
2022-11-13T07:40:20.247Z,6.18
2022-11-13T07:45:40.559Z,6.41
2022-11-13T07:51:02.619Z,6.55
2022-11-13T07:56:25.504Z,6.59
2022-11-13T08:01:46.093Z,6.62
2022-11-13T08:07:06.716Z,6.62
2022-11-13T08:12:27.228Z,6.55
2022-11-13T08:17:54.641Z,6.64
2022-11-13T08:23:15.217Z,6.76
2022-11-13T08:28:36.859Z,6.88
2022-11-13T08:33:57.895Z,6.93
2022-11-13T08:39:18.558Z,6.98
2022-11-13T08:44:49.382Z,7.03
2022-11-13T08:50:09.974Z,7.13
2022-11-13T08:55:30.383Z,7.38
2022-11-13T09:00:51.087Z,7.64
2022-11-13T09:06:11.931Z,7.82
2022-11-13T09:11:32.649Z,7.96
2022-11-13T09:16:53.241Z,8.19
2022-11-13T09:22:13.571Z,8.49
2022-11-13T09:27:34.367Z,8.74
2022-11-13T09:32:57.397Z,8.99
2022-11-13T09:38:17.982Z,9.15
2022-11-13T09:44:26.718Z,9.40
2022-11-13T09:49:58.813Z,9.66
2022-11-13T09:55:24.019Z,10.10
2022-11-13T10:00:45.232Z,10.33
2022-11-13T10:06:43.791Z,10.59
2022-11-13T10:12:07.698Z,10.93
2022-11-13T10:18:12.626Z,11.19
2022-11-13T10:23:35.911Z,11.28
2022-11-13T10:29:17.727Z,11.28
2022-11-13T10:34:38.945Z,11.30
2022-11-13T10:39:59.254Z,11.50
2022-11-13T10:45:22.759Z,11.82
2022-11-13T10:50:43.251Z,12.06
2022-11-13T10:56:14.003Z,12.26
2022-11-13T11:01:34.943Z,12.53
2022-11-13T11:07:19.190Z,12.51
2022-11-13T11:12:36.541Z,12.41
2022-11-13T11:17:59.518Z,12.50
2022-11-13T11:23:25.798Z,12.50
2022-11-13T11:28:59.488Z,12.59
2022-11-13T11:34:34.142Z,12.75
2022-11-13T11:39:54.669Z,12.87
2022-11-13T11:45:26.731Z,13.10
2022-11-13T11:51:05.770Z,13.26
2022-11-13T11:56:50.832Z,13.29
2022-11-13T12:02:32.779Z,13.25
2022-11-13T12:08:02.110Z,13.32
2022-11-13T12:13:30.247Z,13.44
2022-11-13T12:19:05.458Z,13.48
2022-11-13T12:24:31.708Z,13.39
2022-11-13T12:30:15.774Z,13.33
2022-11-13T12:35:38.258Z,13.54
2022-11-13T12:41:07.434Z,13.61
2022-11-13T12:46:37.174Z,13.65
2022-11-13T12:52:00.268Z,13.71
2022-11-13T12:57:30.089Z,13.79
2022-11-13T13:03:19.581Z,13.91
2022-11-13T13:08:58.323Z,13.97
2022-11-13T13:15:00.718Z,14.03
2022-11-13T13:20:20.954Z,14.05
2022-11-13T13:25:41.316Z,14.06
2022-11-13T13:31:16.810Z,14.05
2022-11-13T13:36:51.884Z,14.08
2022-11-13T13:42:30.705Z,14.06
2022-11-13T13:47:53.657Z,13.80
2022-11-13T13:53:36.227Z,13.60
2022-11-13T13:58:56.921Z,13.24
2022-11-13T14:04:20.959Z,12.55
2022-11-13T14:09:41.538Z,11.92
2022-11-13T14:15:05.502Z,11.32
2022-11-13T14:20:26.247Z,10.74
2022-11-13T14:25:48.404Z,10.26
2022-11-13T14:31:11.602Z,9.88
2022-11-13T14:36:34.140Z,9.56
2022-11-13T14:41:59.057Z,9.25
2022-11-13T14:47:31.891Z,9.00
2022-11-13T14:53:17.159Z,8.72
2022-11-13T14:58:47.200Z,8.41
2022-11-13T15:04:07.837Z,8.06
2022-11-13T15:09:30.766Z,7.79
2022-11-13T15:14:51.544Z,7.63
2022-11-13T15:20:18.143Z,7.45
2022-11-13T15:25:38.880Z,7.24
2022-11-13T15:30:59.599Z,6.95
2022-11-13T15:36:20.021Z,6.75
2022-11-13T15:41:41.180Z,6.62
2022-11-13T15:47:01.657Z,6.46
2022-11-13T15:52:24.319Z,6.28
2022-11-13T15:57:45.036Z,6.09
2022-11-13T16:03:11.727Z,5.96
2022-11-13T16:08:32.417Z,5.83
2022-11-13T16:13:53.338Z,5.76
2022-11-13T16:19:21.681Z,5.81
2022-11-13T16:24:44.197Z,5.85
2022-11-13T16:30:07.069Z,5.86
2022-11-13T16:35:27.785Z,5.90
2022-11-13T16:40:48.295Z,5.99
2022-11-13T16:46:20.902Z,6.07
2022-11-13T16:51:41.291Z,6.09
2022-11-13T16:57:01.625Z,6.08
2022-11-13T17:02:22.442Z,6.04
2022-11-13T17:07:42.954Z,5.96
2022-11-13T17:13:03.166Z,5.84
2022-11-13T17:18:23.576Z,5.75
2022-11-13T17:23:44.188Z,5.72
2022-11-13T17:29:05.880Z,5.67
2022-11-13T17:34:26.753Z,5.66
2022-11-13T17:39:46.964Z,5.66
2022-11-13T17:45:08.271Z,5.69
2022-11-13T17:50:29.214Z,5.67
2022-11-13T17:55:58.979Z,5.66
2022-11-13T18:01:22.100Z,5.70
2022-11-13T18:06:42.890Z,5.76
2022-11-13T18:12:03.361Z,5.79
2022-11-13T18:17:24.592Z,5.73
2022-11-13T18:22:45.106Z,5.75
2022-11-13T18:28:05.512Z,5.72
2022-11-13T18:33:26.616Z,5.72
2022-11-13T18:38:47.568Z,5.71
2022-11-13T18:44:08.498Z,5.69
2022-11-13T18:49:29.519Z,5.69
2022-11-13T18:54:50.412Z,5.64
2022-11-13T19:00:11.218Z,5.61
2022-11-13T19:05:31.575Z,5.60
2022-11-13T19:10:52.192Z,5.60
2022-11-13T19:16:19.599Z,5.62
2022-11-13T19:21:40.541Z,5.62
2022-11-13T19:27:01.113Z,5.61
2022-11-13T19:32:21.415Z,5.60
2022-11-13T19:37:42.038Z,5.62
2022-11-13T19:43:02.726Z,5.61
2022-11-13T19:48:23.369Z,5.64
2022-11-13T19:53:59.008Z,5.66
2022-11-13T19:59:19.449Z,5.69
2022-11-13T20:04:40.182Z,5.69
2022-11-13T20:10:00.888Z,5.68
2022-11-13T20:15:21.196Z,5.70
2022-11-13T20:20:44.423Z,5.72
2022-11-13T20:26:08.067Z,5.70
2022-11-13T20:31:28.741Z,5.62
2022-11-13T20:36:49.399Z,5.55
2022-11-13T20:42:09.812Z,5.53
2022-11-13T20:47:30.834Z,5.58
2022-11-13T20:52:51.558Z,5.60
2022-11-13T20:58:12.479Z,5.56
2022-11-13T21:03:38.601Z,5.53
2022-11-13T21:09:02.007Z,5.55
2022-11-13T21:14:22.620Z,5.56
2022-11-13T21:19:43.427Z,5.48
2022-11-13T21:25:04.882Z,5.39
2022-11-13T21:30:25.906Z,5.32
2022-11-13T21:35:46.723Z,5.31
2022-11-13T21:41:21.405Z,5.30
2022-11-13T21:46:42.300Z,5.27
2022-11-13T21:52:02.947Z,5.24
2022-11-13T21:57:24.413Z,5.27
2022-11-13T22:02:44.968Z,5.26
2022-11-13T22:08:05.684Z,5.30
2022-11-13T22:13:30.797Z,5.36
2022-11-13T22:18:55.929Z,5.40
2022-11-13T22:24:17.055Z,5.36
2022-11-13T22:29:37.781Z,5.40
2022-11-13T22:34:58.347Z,5.45
2022-11-13T22:40:19.010Z,5.49
2022-11-13T22:45:39.422Z,5.53
2022-11-13T22:51:11.230Z,5.58
2022-11-13T22:56:33.669Z,5.60
2022-11-13T23:01:54.073Z,5.62
2022-11-13T23:07:14.838Z,5.72
2022-11-13T23:12:35.201Z,5.69
2022-11-13T23:17:55.619Z,5.65
2022-11-13T23:23:17.458Z,5.66
2022-11-13T23:28:38.791Z,5.57
2022-11-13T23:33:59.183Z,5.56
2022-11-13T23:39:19.722Z,5.53
2022-11-13T23:44:40.127Z,5.43
2022-11-13T23:50:01.201Z,5.31
2022-11-13T23:55:22.798Z,5.18
